createdAt,value
2022-10-22T00:00:10.000Z,97938
2022-10-22T00:01:36.000Z,97938
2022-10-22T00:03:43.000Z,97936
2022-10-22T00:05:09.000Z,97932
2022-10-22T00:07:15.000Z,97931
2022-10-22T00:08:42.000Z,97937
2022-10-22T00:10:48.000Z,97950
2022-10-22T00:12:15.000Z,97959
2022-10-22T00:14:21.000Z,97956
2022-10-22T00:15:47.000Z,97955
2022-10-22T00:17:53.000Z,97954
2022-10-22T00:20:45.000Z,97964
2022-10-22T00:22:11.000Z,97965
2022-10-22T00:24:17.000Z,97970
2022-10-22T00:25:44.000Z,97977
2022-10-22T00:27:50.000Z,97989
2022-10-22T00:29:17.000Z,97992
2022-10-22T00:31:23.000Z,97995
2022-10-22T00:32:49.000Z,97998
2022-10-22T00:34:55.000Z,97997
2022-10-22T00:36:22.000Z,97992
2022-10-22T00:38:28.000Z,97998
2022-10-22T00:39:54.000Z,97996
2022-10-22T00:42:00.000Z,97997
2022-10-22T00:43:27.000Z,97992
2022-10-22T00:45:33.000Z,97984
2022-10-22T00:47:00.000Z,97977
2022-10-22T00:49:06.000Z,97969
2022-10-22T00:50:32.000Z,97968
2022-10-22T00:52:38.000Z,97965
2022-10-22T00:54:06.000Z,97961
2022-10-22T00:56:12.000Z,97958
2022-10-22T00:59:03.000Z,97955
2022-10-22T01:00:30.000Z,97953
2022-10-22T01:02:36.000Z,97943
2022-10-22T01:04:03.000Z,97943
2022-10-22T01:06:09.000Z,97940
2022-10-22T01:07:35.000Z,97940
2022-10-22T01:09:41.000Z,97937
2022-10-22T01:11:08.000Z,97938
2022-10-22T01:13:14.000Z,97937
2022-10-22T01:14:41.000Z,97936
2022-10-22T01:16:47.000Z,97938
2022-10-22T01:18:13.000Z,97934
2022-10-22T01:20:19.000Z,97937
2022-10-22T01:21:46.000Z,97934
2022-10-22T01:23:52.000Z,97936
2022-10-22T01:25:19.000Z,97939
2022-10-22T01:27:25.000Z,97934
2022-10-22T01:28:51.000Z,97939
2022-10-22T01:30:57.000Z,97940
2022-10-22T01:32:24.000Z,97943
2022-10-22T01:34:30.000Z,97937
2022-10-22T01:37:21.000Z,97942
2022-10-22T01:38:48.000Z,97940
2022-10-22T01:40:54.000Z,97933
2022-10-22T01:42:20.000Z,97936
2022-10-22T01:44:26.000Z,97933
2022-10-22T01:45:53.000Z,97936
2022-10-22T01:47:59.000Z,97944
2022-10-22T01:49:26.000Z,97943
2022-10-22T01:51:32.000Z,97947
2022-10-22T01:52:58.000Z,97946
2022-10-22T01:55:04.000Z,97945
2022-10-22T01:56:31.000Z,97941
2022-10-22T01:58:37.000Z,97937
2022-10-22T02:00:03.000Z,97935
2022-10-22T02:02:09.000Z,97931
2022-10-22T02:03:36.000Z,97928
2022-10-22T02:05:42.000Z,97935
2022-10-22T02:07:08.000Z,97936
2022-10-22T02:09:15.000Z,97947
2022-10-22T02:10:41.000Z,97956
2022-10-22T02:12:47.000Z,97957
2022-10-22T02:15:38.000Z,97956
2022-10-22T02:17:05.000Z,97958
2022-10-22T02:19:11.000Z,97963
2022-10-22T02:20:38.000Z,97965
2022-10-22T02:22:44.000Z,97964
2022-10-22T02:24:10.000Z,97968
2022-10-22T02:26:16.000Z,97970
2022-10-22T02:27:43.000Z,97969
2022-10-22T02:29:49.000Z,97967
2022-10-22T02:31:15.000Z,97968
2022-10-22T02:33:21.000Z,97968
2022-10-22T02:34:48.000Z,97966
2022-10-22T02:36:54.000Z,97965
2022-10-22T02:38:20.000Z,97960
2022-10-22T02:40:26.000Z,97956
2022-10-22T02:41:53.000Z,97958
2022-10-22T02:43:59.000Z,97962
2022-10-22T02:45:26.000Z,97963
2022-10-22T02:47:32.000Z,97963
2022-10-22T02:48:58.000Z,97969
2022-10-22T02:51:04.000Z,97975
2022-10-22T02:53:55.000Z,97981
2022-10-22T02:55:22.000Z,97981
2022-10-22T02:57:28.000Z,97978
2022-10-22T02:58:55.000Z,97979
2022-10-22T03:01:01.000Z,97971
2022-10-22T03:02:27.000Z,97966
2022-10-22T03:04:34.000Z,97968
2022-10-22T03:06:00.000Z,97969
2022-10-22T03:08:06.000Z,97971
2022-10-22T03:09:33.000Z,97973
2022-10-22T03:11:39.000Z,97979
2022-10-22T03:13:05.000Z,97989
2022-10-22T03:15:11.000Z,97991
2022-10-22T03:16:38.000Z,97990
2022-10-22T03:18:44.000Z,97993
2022-10-22T03:20:10.000Z,97994
2022-10-22T03:22:17.000Z,97998
2022-10-22T03:23:43.000Z,97995
2022-10-22T03:25:49.000Z,97998
2022-10-22T03:27:16.000Z,98000
2022-10-22T03:29:22.000Z,98006
2022-10-22T03:32:13.000Z,98009
2022-10-22T03:33:40.000Z,98013
2022-10-22T03:35:46.000Z,98021
2022-10-22T03:37:12.000Z,98027
2022-10-22T03:39:19.000Z,98030
2022-10-22T03:40:45.000Z,98029
2022-10-22T03:42:51.000Z,98024
2022-10-22T03:44:18.000Z,98023
2022-10-22T03:46:24.000Z,98020
2022-10-22T03:47:50.000Z,98019
2022-10-22T03:49:56.000Z,98013
2022-10-22T03:51:23.000Z,98012
2022-10-22T03:53:29.000Z,98013
2022-10-22T03:54:55.000Z,98017
2022-10-22T03:57:01.000Z,98032
2022-10-22T03:58:28.000Z,98039
2022-10-22T04:00:34.000Z,98047
2022-10-22T04:02:01.000Z,98054
2022-10-22T04:04:07.000Z,98050
2022-10-22T04:05:33.000Z,98054
2022-10-22T04:07:39.000Z,98062
2022-10-22T04:10:31.000Z,98068
2022-10-22T04:11:58.000Z,98068
2022-10-22T04:14:04.000Z,98068
2022-10-22T04:15:30.000Z,98069
2022-10-22T04:17:36.000Z,98071
2022-10-22T04:19:03.000Z,98075
2022-10-22T04:21:09.000Z,98072
2022-10-22T04:22:36.000Z,98071
2022-10-22T04:24:42.000Z,98076
2022-10-22T04:26:09.000Z,98081
2022-10-22T04:28:15.000Z,98086
2022-10-22T04:29:41.000Z,98089
2022-10-22T04:31:47.000Z,98083
2022-10-22T04:33:14.000Z,98082
2022-10-22T04:35:20.000Z,98075
2022-10-22T04:36:47.000Z,98071
2022-10-22T04:38:53.000Z,98053
2022-10-22T04:40:19.000Z,98043
2022-10-22T04:42:25.000Z,98032
2022-10-22T04:43:52.000Z,98031
2022-10-22T04:45:58.000Z,98027
2022-10-22T04:48:49.000Z,98030
2022-10-22T04:50:16.000Z,98023
2022-10-22T04:52:22.000Z,98017
2022-10-22T04:53:48.000Z,98015
2022-10-22T04:55:55.000Z,98016
2022-10-22T04:57:21.000Z,98018
2022-10-22T04:59:27.000Z,98019
2022-10-22T05:00:54.000Z,98019
2022-10-22T05:03:00.000Z,98024
2022-10-22T05:04:26.000Z,98032
2022-10-22T05:06:32.000Z,98047
2022-10-22T05:07:59.000Z,98042
2022-10-22T05:10:05.000Z,98044
2022-10-22T05:11:32.000Z,98040
2022-10-22T05:13:38.000Z,98041
2022-10-22T05:15:04.000Z,98041
2022-10-22T05:17:10.000Z,98036
2022-10-22T05:18:37.000Z,98035
2022-10-22T05:20:43.000Z,98035
2022-10-22T05:22:09.000Z,98043
2022-10-22T05:24:15.000Z,98046
2022-10-22T05:27:06.000Z,98059
2022-10-22T05:28:33.000Z,98057
2022-10-22T05:30:39.000Z,98054
2022-10-22T05:32:06.000Z,98054
2022-10-22T05:34:12.000Z,98048
2022-10-22T05:35:38.000Z,98052
2022-10-22T05:37:44.000Z,98051
2022-10-22T05:39:11.000Z,98052
2022-10-22T05:41:17.000Z,98050
2022-10-22T05:42:44.000Z,98049
2022-10-22T05:44:50.000Z,98058
2022-10-22T05:46:16.000Z,98066
2022-10-22T05:48:28.000Z,98073
2022-10-22T05:49:54.000Z,98079
2022-10-22T05:52:01.000Z,98084
2022-10-22T05:53:27.000Z,98083
2022-10-22T05:55:33.000Z,98082
2022-10-22T05:57:00.000Z,98085
2022-10-22T05:59:06.000Z,98097
2022-10-22T06:00:32.000Z,98112
2022-10-22T06:02:38.000Z,98113
2022-10-22T06:05:30.000Z,98110
2022-10-22T06:06:57.000Z,98120
2022-10-22T06:09:03.000Z,98114
2022-10-22T06:10:30.000Z,98123
2022-10-22T06:12:36.000Z,98125
2022-10-22T06:14:02.000Z,98131
2022-10-22T06:16:08.000Z,98135
2022-10-22T06:17:35.000Z,98139
2022-10-22T06:19:41.000Z,98140
2022-10-22T06:21:08.000Z,98148
2022-10-22T06:23:14.000Z,98147
2022-10-22T06:24:40.000Z,98153
2022-10-22T06:26:50.000Z,98157
2022-10-22T06:28:17.000Z,98162
2022-10-22T06:30:23.000Z,98157
2022-10-22T06:31:50.000Z,98165
2022-10-22T06:33:56.000Z,98163
2022-10-22T06:35:22.000Z,98170
2022-10-22T06:37:28.000Z,98176
2022-10-22T06:38:55.000Z,98177
2022-10-22T06:41:01.000Z,98178
2022-10-22T06:43:52.000Z,98178
2022-10-22T06:45:19.000Z,98186
2022-10-22T06:47:25.000Z,98189
2022-10-22T06:48:51.000Z,98189
2022-10-22T06:50:57.000Z,98199
2022-10-22T06:52:24.000Z,98199
2022-10-22T06:54:30.000Z,98197
2022-10-22T06:55:56.000Z,98202
2022-10-22T06:58:02.000Z,98207
2022-10-22T06:59:29.000Z,98207
2022-10-22T07:01:35.000Z,98206
2022-10-22T07:03:02.000Z,98213
2022-10-22T07:05:08.000Z,98217
2022-10-22T07:06:34.000Z,98215
2022-10-22T07:08:41.000Z,98219
2022-10-22T07:10:07.000Z,98221
2022-10-22T07:12:13.000Z,98225
2022-10-22T07:13:40.000Z,98226
2022-10-22T07:15:46.000Z,98227
2022-10-22T07:17:13.000Z,98228
2022-10-22T07:19:19.000Z,98228
2022-10-22T07:22:10.000Z,98227
2022-10-22T07:23:36.000Z,98227
2022-10-22T07:25:42.000Z,98233
2022-10-22T07:27:09.000Z,98230
2022-10-22T07:29:17.000Z,98231
2022-10-22T07:30:44.000Z,98234
2022-10-22T07:32:50.000Z,98237
2022-10-22T07:34:16.000Z,98235
2022-10-22T07:36:22.000Z,98233
2022-10-22T07:37:49.000Z,98231
2022-10-22T07:39:55.000Z,98235
2022-10-22T07:41:21.000Z,98240
2022-10-22T07:43:28.000Z,98243
2022-10-22T07:44:54.000Z,98243
2022-10-22T07:47:00.000Z,98250
2022-10-22T07:48:27.000Z,98249
2022-10-22T07:50:33.000Z,98251
2022-10-22T07:52:00.000Z,98252
2022-10-22T07:54:06.000Z,98258
2022-10-22T07:55:32.000Z,98260
2022-10-22T07:57:38.000Z,98263
2022-10-22T08:00:30.000Z,98272
2022-10-22T08:01:57.000Z,98269
2022-10-22T08:04:03.000Z,98275
2022-10-22T08:05:29.000Z,98275
2022-10-22T08:07:35.000Z,98276
2022-10-22T08:09:02.000Z,98277
2022-10-22T08:11:08.000Z,98278
2022-10-22T08:12:35.000Z,98280
2022-10-22T08:14:41.000Z,98282
2022-10-22T08:16:07.000Z,98283
2022-10-22T08:18:13.000Z,98284
2022-10-22T08:19:40.000Z,98285
2022-10-22T08:21:46.000Z,98290
2022-10-22T08:23:13.000Z,98288
2022-10-22T08:25:19.000Z,98285
2022-10-22T08:26:46.000Z,98288
2022-10-22T08:28:52.000Z,98291
2022-10-22T08:30:18.000Z,98290
2022-10-22T08:32:24.000Z,98295
2022-10-22T08:33:51.000Z,98298
2022-10-22T08:35:57.000Z,98302
2022-10-22T08:38:48.000Z,98307
2022-10-22T08:40:15.000Z,98308
2022-10-22T08:42:21.000Z,98306
2022-10-22T08:43:47.000Z,98308
2022-10-22T08:45:53.000Z,98309
2022-10-22T08:47:20.000Z,98309
2022-10-22T08:49:28.000Z,98309
2022-10-22T08:50:55.000Z,98310
2022-10-22T08:53:01.000Z,98310
2022-10-22T08:54:27.000Z,98313
2022-10-22T08:56:33.000Z,98318
2022-10-22T08:58:00.000Z,98316
2022-10-22T09:00:06.000Z,98319
2022-10-22T09:01:32.000Z,98323
2022-10-22T09:03:39.000Z,98322
2022-10-22T09:05:05.000Z,98326
2022-10-22T09:07:17.000Z,98322
2022-10-22T09:08:43.000Z,98326
2022-10-22T09:10:50.000Z,98325
2022-10-22T09:12:16.000Z,98326
2022-10-22T09:14:26.000Z,98323
2022-10-22T09:17:17.000Z,98323
2022-10-22T09:18:44.000Z,98320
2022-10-22T09:20:50.000Z,98319
2022-10-22T09:22:17.000Z,98323
2022-10-22T09:24:23.000Z,98325
2022-10-22T09:25:49.000Z,98325
2022-10-22T09:27:56.000Z,98326
2022-10-22T09:29:22.000Z,98324
2022-10-22T09:31:28.000Z,98331
2022-10-22T09:32:55.000Z,98325
2022-10-22T09:35:01.000Z,98325
2022-10-22T09:36:27.000Z,98329
2022-10-22T09:38:34.000Z,98328
2022-10-22T09:40:00.000Z,98328
2022-10-22T09:42:06.000Z,98336
2022-10-22T09:43:33.000Z,98337
2022-10-22T09:45:39.000Z,98334
2022-10-22T09:47:05.000Z,98336
2022-10-22T09:49:12.000Z,98337
2022-10-22T09:50:38.000Z,98336
2022-10-22T09:52:44.000Z,98341
2022-10-22T09:55:35.000Z,98340
2022-10-22T09:57:02.000Z,98342
2022-10-22T09:59:08.000Z,98352
2022-10-22T10:00:34.000Z,98358
2022-10-22T10:02:41.000Z,98359
2022-10-22T10:04:07.000Z,98356
2022-10-22T10:06:16.000Z,98359
2022-10-22T10:07:42.000Z,98359
2022-10-22T10:09:49.000Z,98359
2022-10-22T10:11:15.000Z,98356
2022-10-22T10:13:21.000Z,98358
2022-10-22T10:14:48.000Z,98357
2022-10-22T10:16:54.000Z,98361
2022-10-22T10:18:21.000Z,98363
2022-10-22T10:20:27.000Z,98363
2022-10-22T10:21:54.000Z,98356
2022-10-22T10:24:00.000Z,98360
2022-10-22T10:25:26.000Z,98354
2022-10-22T10:27:32.000Z,98351
2022-10-22T10:28:59.000Z,98347
2022-10-22T10:31:05.000Z,98351
2022-10-22T10:33:56.000Z,98359
2022-10-22T10:35:22.000Z,98358
2022-10-22T10:37:29.000Z,98361
2022-10-22T10:38:55.000Z,98361
2022-10-22T10:41:01.000Z,98364
2022-10-22T10:42:28.000Z,98365
2022-10-22T10:44:34.000Z,98364
2022-10-22T10:46:00.000Z,98366
2022-10-22T10:48:06.000Z,98364
2022-10-22T10:49:33.000Z,98359
2022-10-22T10:51:39.000Z,98359
2022-10-22T10:53:05.000Z,98361
2022-10-22T10:55:12.000Z,98365
2022-10-22T10:56:38.000Z,98372
2022-10-22T10:58:45.000Z,98370
2022-10-22T11:00:11.000Z,98376
2022-10-22T11:02:18.000Z,98374
2022-10-22T11:03:44.000Z,98377
2022-10-22T11:05:50.000Z,98372
2022-10-22T11:07:17.000Z,98374
2022-10-22T11:09:39.000Z,98376
2022-10-22T11:12:30.000Z,98385
2022-10-22T11:13:57.000Z,98388
2022-10-22T11:16:03.000Z,98384
2022-10-22T11:17:30.000Z,98382
2022-10-22T11:19:36.000Z,98391
2022-10-22T11:21:18.000Z,98390
2022-10-22T11:23:24.000Z,98389
2022-10-22T11:24:52.000Z,98387
2022-10-22T11:26:58.000Z,98392
2022-10-22T11:28:24.000Z,98390
2022-10-22T11:30:30.000Z,98384
2022-10-22T11:31:57.000Z,98383
2022-10-22T11:34:03.000Z,98372
2022-10-22T11:35:47.000Z,98378
2022-10-22T11:37:54.000Z,98375
2022-10-22T11:39:20.000Z,98378
2022-10-22T11:41:26.000Z,98376
2022-10-22T11:42:53.000Z,98375
2022-10-22T11:44:59.000Z,98375
2022-10-22T11:46:26.000Z,98370
2022-10-22T11:48:32.000Z,98370
2022-10-22T11:51:23.000Z,98373
2022-10-22T11:52:50.000Z,98371
2022-10-22T11:54:56.000Z,98374
2022-10-22T11:56:22.000Z,98370
2022-10-22T11:58:29.000Z,98375
2022-10-22T11:59:55.000Z,98370
2022-10-22T12:02:01.000Z,98365
2022-10-22T12:03:28.000Z,98362
2022-10-22T12:05:34.000Z,98360
2022-10-22T12:07:00.000Z,98357
2022-10-22T12:09:06.000Z,98359
2022-10-22T12:10:33.000Z,98360
2022-10-22T12:12:39.000Z,98362
2022-10-22T12:14:06.000Z,98366
2022-10-22T12:16:12.000Z,98364
2022-10-22T12:17:41.000Z,98370
2022-10-22T12:19:47.000Z,98361
2022-10-22T12:21:13.000Z,98364
2022-10-22T12:23:19.000Z,98363
2022-10-22T12:24:46.000Z,98358
2022-10-22T12:26:52.000Z,98361
2022-10-22T12:29:44.000Z,98364
2022-10-22T12:31:10.000Z,98360
2022-10-22T12:33:16.000Z,98360
2022-10-22T12:34:43.000Z,98360
2022-10-22T12:36:49.000Z,98356
2022-10-22T12:38:16.000Z,98356
2022-10-22T12:40:22.000Z,98354
2022-10-22T12:41:48.000Z,98356
2022-10-22T12:43:54.000Z,98355
2022-10-22T12:45:21.000Z,98354
2022-10-22T12:47:27.000Z,98351
2022-10-22T12:48:53.000Z,98354
2022-10-22T12:51:00.000Z,98349
2022-10-22T12:52:26.000Z,98354
2022-10-22T12:54:32.000Z,98357
2022-10-22T12:55:59.000Z,98356
2022-10-22T12:58:05.000Z,98357
2022-10-22T12:59:31.000Z,98361
2022-10-22T13:01:37.000Z,98362
2022-10-22T13:03:04.000Z,98364
2022-10-22T13:05:10.000Z,98362
2022-10-22T13:08:01.000Z,98366
2022-10-22T13:09:28.000Z,98367
2022-10-22T13:11:36.000Z,98367
2022-10-22T13:13:03.000Z,98368
2022-10-22T13:15:09.000Z,98373
2022-10-22T13:18:42.000Z,98369
2022-10-22T13:20:08.000Z,98369
2022-10-22T13:22:14.000Z,98373
2022-10-22T13:23:41.000Z,98375
2022-10-22T13:25:47.000Z,98379
2022-10-22T13:27:13.000Z,98380
2022-10-22T13:29:19.000Z,98381
2022-10-22T13:30:46.000Z,98378
2022-10-22T13:32:52.000Z,98382
2022-10-22T13:34:19.000Z,98381
2022-10-22T13:36:25.000Z,98383
2022-10-22T13:37:51.000Z,98384
2022-10-22T13:39:57.000Z,98383
2022-10-22T13:41:24.000Z,98388
2022-10-22T13:43:30.000Z,98381
2022-10-22T13:46:21.000Z,98380
2022-10-22T13:47:48.000Z,98383
2022-10-22T13:49:54.000Z,98385
2022-10-22T13:51:23.000Z,98379
2022-10-22T13:53:29.000Z,98379
2022-10-22T13:54:56.000Z,98384
2022-10-22T13:57:02.000Z,98384
2022-10-22T13:58:28.000Z,98382
2022-10-22T14:00:34.000Z,98387
2022-10-22T14:02:01.000Z,98390
2022-10-22T14:04:07.000Z,98393
2022-10-22T14:05:34.000Z,98394
2022-10-22T14:07:40.000Z,98395
2022-10-22T14:09:07.000Z,98394
2022-10-22T14:11:13.000Z,98394
2022-10-22T14:12:40.000Z,98394
2022-10-22T14:14:46.000Z,98399
2022-10-22T14:16:12.000Z,98401
2022-10-22T14:18:18.000Z,98396
2022-10-22T14:19:45.000Z,98396
2022-10-22T14:21:51.000Z,98396
2022-10-22T14:24:42.000Z,98394
2022-10-22T14:26:09.000Z,98393
2022-10-22T14:28:15.000Z,98394
2022-10-22T14:29:41.000Z,98397
2022-10-22T14:31:47.000Z,98399
2022-10-22T14:33:14.000Z,98399
2022-10-22T14:35:20.000Z,98407
2022-10-22T14:36:46.000Z,98405
2022-10-22T14:38:53.000Z,98403
2022-10-22T14:40:19.000Z,98402
2022-10-22T14:42:25.000Z,98411
2022-10-22T14:43:52.000Z,98413
2022-10-22T14:45:58.000Z,98409
2022-10-22T14:47:24.000Z,98408
2022-10-22T14:49:30.000Z,98407
2022-10-22T14:50:57.000Z,98408
2022-10-22T14:53:03.000Z,98407
2022-10-22T14:54:29.000Z,98404
2022-10-22T14:58:03.000Z,98405
2022-10-22T15:00:09.000Z,98409
2022-10-22T15:03:00.000Z,98411
2022-10-22T15:04:30.000Z,98413
2022-10-22T15:06:36.000Z,98416
2022-10-22T15:08:03.000Z,98416
2022-10-22T15:10:09.000Z,98420
2022-10-22T15:11:35.000Z,98414
2022-10-22T15:13:41.000Z,98417
2022-10-22T15:15:08.000Z,98416
2022-10-22T15:17:14.000Z,98416
2022-10-22T15:18:41.000Z,98419
2022-10-22T15:20:47.000Z,98417
2022-10-22T15:22:13.000Z,98415
2022-10-22T15:24:19.000Z,98418
2022-10-22T15:25:46.000Z,98416
2022-10-22T15:27:52.000Z,98417
2022-10-22T15:29:25.000Z,98417
2022-10-22T15:31:31.000Z,98416
2022-10-22T15:32:58.000Z,98422
2022-10-22T15:35:04.000Z,98421
2022-10-22T15:36:31.000Z,98428
2022-10-22T15:38:37.000Z,98429
2022-10-22T15:41:28.000Z,98431
2022-10-22T15:42:54.000Z,98435
2022-10-22T15:45:00.000Z,98432
2022-10-22T15:46:27.000Z,98440
2022-10-22T15:48:39.000Z,98444
2022-10-22T15:50:05.000Z,98446
2022-10-22T15:52:11.000Z,98443
2022-10-22T15:53:38.000Z,98446
2022-10-22T15:55:44.000Z,98445
2022-10-22T15:57:10.000Z,98447
2022-10-22T15:59:17.000Z,98451
2022-10-22T16:00:43.000Z,98452
2022-10-22T16:02:49.000Z,98452
2022-10-22T16:04:16.000Z,98452
2022-10-22T16:06:22.000Z,98457
2022-10-22T16:07:48.000Z,98457
2022-10-22T16:09:54.000Z,98461
2022-10-22T16:11:21.000Z,98460
2022-10-22T16:13:27.000Z,98461
2022-10-22T16:14:54.000Z,98458
2022-10-22T16:17:00.000Z,98456
2022-10-22T16:19:51.000Z,98457
2022-10-22T16:21:18.000Z,98459
2022-10-22T16:23:24.000Z,98457
2022-10-22T16:24:50.000Z,98460
2022-10-22T16:26:56.000Z,98458
2022-10-22T16:28:23.000Z,98457
2022-10-22T16:30:29.000Z,98462
2022-10-22T16:31:56.000Z,98462
2022-10-22T16:34:02.000Z,98464
2022-10-22T16:35:28.000Z,98466
2022-10-22T16:37:34.000Z,98467
2022-10-22T16:39:01.000Z,98464
2022-10-22T16:41:07.000Z,98463
2022-10-22T16:42:34.000Z,98463
2022-10-22T16:44:40.000Z,98461
2022-10-22T16:46:06.000Z,98458
2022-10-22T16:48:12.000Z,98466
2022-10-22T16:49:39.000Z,98469
2022-10-22T16:51:45.000Z,98465
2022-10-22T16:53:11.000Z,98468
2022-10-22T16:55:18.000Z,98468
2022-10-22T16:58:09.000Z,98470
2022-10-22T16:59:35.000Z,98470
2022-10-22T17:01:41.000Z,98467
2022-10-22T17:03:08.000Z,98470
2022-10-22T17:05:14.000Z,98473
2022-10-22T17:06:40.000Z,98467
2022-10-22T17:08:47.000Z,98465
2022-10-22T17:10:13.000Z,98463
2022-10-22T17:12:20.000Z,98467
2022-10-22T17:13:46.000Z,98465
2022-10-22T17:15:52.000Z,98468
2022-10-22T17:17:19.000Z,98469
2022-10-22T17:19:25.000Z,98470
2022-10-22T17:20:51.000Z,98478
2022-10-22T17:22:57.000Z,98481
2022-10-22T17:24:24.000Z,98480
2022-10-22T17:26:30.000Z,98479
2022-10-22T17:27:57.000Z,98482
2022-10-22T17:30:03.000Z,98477
2022-10-22T17:31:29.000Z,98482
2022-10-22T17:33:35.000Z,98484
2022-10-22T17:36:27.000Z,98484
2022-10-22T17:37:58.000Z,98485
2022-10-22T17:40:04.000Z,98488
2022-10-22T17:41:30.000Z,98487
2022-10-22T17:43:36.000Z,98488
2022-10-22T17:45:03.000Z,98488
2022-10-22T17:47:09.000Z,98488
2022-10-22T17:48:35.000Z,98493
2022-10-22T17:50:42.000Z,98492
2022-10-22T17:52:12.000Z,98497
2022-10-22T17:54:18.000Z,98499
2022-10-22T17:55:44.000Z,98502
2022-10-22T17:57:50.000Z,98502
2022-10-22T17:59:17.000Z,98506
2022-10-22T18:01:23.000Z,98505
2022-10-22T18:02:50.000Z,98508
2022-10-22T18:04:56.000Z,98510
2022-10-22T18:06:22.000Z,98515
2022-10-22T18:08:28.000Z,98517
2022-10-22T18:09:55.000Z,98516
2022-10-22T18:12:01.000Z,98519
2022-10-22T18:14:52.000Z,98522
2022-10-22T18:16:19.000Z,98521
2022-10-22T18:18:25.000Z,98522
2022-10-22T18:19:51.000Z,98519
2022-10-22T18:21:57.000Z,98527
2022-10-22T18:23:24.000Z,98528
2022-10-22T18:25:30.000Z,98534
2022-10-22T18:26:56.000Z,98534
2022-10-22T18:29:03.000Z,98535
2022-10-22T18:30:29.000Z,98533
2022-10-22T18:32:35.000Z,98529
2022-10-22T18:34:02.000Z,98532
2022-10-22T18:36:08.000Z,98528
2022-10-22T18:37:34.000Z,98523
2022-10-22T18:39:40.000Z,98526
2022-10-22T18:41:07.000Z,98519
2022-10-22T18:43:13.000Z,98522
2022-10-22T18:44:39.000Z,98524
2022-10-22T18:46:45.000Z,98523
2022-10-22T18:48:12.000Z,98526
2022-10-22T18:50:18.000Z,98527
2022-10-22T18:53:09.000Z,98528
2022-10-22T18:54:36.000Z,98527
2022-10-22T18:56:42.000Z,98527
2022-10-22T18:58:08.000Z,98526
2022-10-22T19:00:15.000Z,98528
2022-10-22T19:01:41.000Z,98525
2022-10-22T19:03:47.000Z,98523
2022-10-22T19:05:14.000Z,98520
2022-10-22T19:07:20.000Z,98524
2022-10-22T19:08:46.000Z,98525
2022-10-22T19:10:57.000Z,98525
2022-10-22T19:12:23.000Z,98525
2022-10-22T19:14:29.000Z,98533
2022-10-22T19:15:56.000Z,98534
2022-10-22T19:18:02.000Z,98537
2022-10-22T19:19:28.000Z,98531
2022-10-22T19:21:35.000Z,98525
2022-10-22T19:23:01.000Z,98526
2022-10-22T19:25:07.000Z,98534
2022-10-22T19:26:38.000Z,98539
2022-10-22T19:28:44.000Z,98540
2022-10-22T19:31:35.000Z,98549
2022-10-22T19:33:02.000Z,98543
2022-10-22T19:35:08.000Z,98550
2022-10-22T19:36:34.000Z,98550
2022-10-22T19:38:40.000Z,98547
2022-10-22T19:40:07.000Z,98549
2022-10-22T19:42:13.000Z,98551
2022-10-22T19:43:40.000Z,98551
2022-10-22T19:45:46.000Z,98545
2022-10-22T19:47:12.000Z,98544
2022-10-22T19:49:18.000Z,98540
2022-10-22T19:50:49.000Z,98540
2022-10-22T19:52:55.000Z,98543
2022-10-22T19:54:21.000Z,98545
2022-10-22T19:56:28.000Z,98546
2022-10-22T19:57:54.000Z,98548
2022-10-22T20:00:00.000Z,98550
2022-10-22T20:01:27.000Z,98546
2022-10-22T20:03:33.000Z,98545
2022-10-22T20:05:00.000Z,98545
2022-10-22T20:07:06.000Z,98546
2022-10-22T20:09:57.000Z,98545
2022-10-22T20:11:24.000Z,98542
2022-10-22T20:13:30.000Z,98538
2022-10-22T20:14:56.000Z,98539
2022-10-22T20:17:02.000Z,98536
2022-10-22T20:18:29.000Z,98540
2022-10-22T20:20:35.000Z,98542
2022-10-22T20:22:02.000Z,98543
2022-10-22T20:24:08.000Z,98541
2022-10-22T20:25:34.000Z,98547
2022-10-22T20:27:40.000Z,98547
2022-10-22T20:29:07.000Z,98543
2022-10-22T20:31:13.000Z,98545
2022-10-22T20:32:40.000Z,98547
2022-10-22T20:34:46.000Z,98541
2022-10-22T20:36:13.000Z,98544
2022-10-22T20:38:19.000Z,98545
2022-10-22T20:39:46.000Z,98550
2022-10-22T20:41:52.000Z,98547
2022-10-22T20:43:18.000Z,98553
2022-10-22T20:45:24.000Z,98553
2022-10-22T20:48:15.000Z,98553
2022-10-22T20:49:42.000Z,98557
2022-10-22T20:51:48.000Z,98558
2022-10-22T20:53:15.000Z,98559
2022-10-22T20:55:22.000Z,98561
2022-10-22T20:56:49.000Z,98560
2022-10-22T20:58:55.000Z,98557
2022-10-22T21:00:22.000Z,98559
2022-10-22T21:02:28.000Z,98558
2022-10-22T21:03:54.000Z,98560
2022-10-22T21:06:00.000Z,98555
2022-10-22T21:07:27.000Z,98558
2022-10-22T21:09:33.000Z,98558
2022-10-22T21:10:59.000Z,98558
2022-10-22T21:13:06.000Z,98560
2022-10-22T21:14:32.000Z,98562
2022-10-22T21:16:38.000Z,98557
2022-10-22T21:18:05.000Z,98555
2022-10-22T21:21:37.000Z,98551
2022-10-22T21:23:43.000Z,98553
2022-10-22T21:26:34.000Z,98560
2022-10-22T21:28:01.000Z,98559
2022-10-22T21:30:07.000Z,98556
2022-10-22T21:31:33.000Z,98553
2022-10-22T21:33:39.000Z,98556
2022-10-22T21:35:06.000Z,98552
2022-10-22T21:37:12.000Z,98550
2022-10-22T21:38:38.000Z,98548
2022-10-22T21:40:44.000Z,98550
2022-10-22T21:42:11.000Z,98548
2022-10-22T21:44:17.000Z,98546
2022-10-22T21:45:44.000Z,98547
2022-10-22T21:47:50.000Z,98543
2022-10-22T21:49:16.000Z,98542
2022-10-22T21:51:22.000Z,98542
2022-10-22T21:52:49.000Z,98537
2022-10-22T21:54:55.000Z,98540
2022-10-22T21:56:21.000Z,98536
2022-10-22T21:58:27.000Z,98532
2022-10-22T21:59:54.000Z,98532
2022-10-22T22:02:00.000Z,98532
2022-10-22T22:04:56.000Z,98533
2022-10-22T22:06:23.000Z,98531
2022-10-22T22:08:29.000Z,98533
2022-10-22T22:09:55.000Z,98531
2022-10-22T22:12:02.000Z,98531
2022-10-22T22:13:28.000Z,98532
2022-10-22T22:15:34.000Z,98538
2022-10-22T22:17:01.000Z,98539
2022-10-22T22:19:07.000Z,98542
2022-10-22T22:20:33.000Z,98541
2022-10-22T22:22:40.000Z,98543
2022-10-22T22:24:07.000Z,98541
2022-10-22T22:26:13.000Z,98538
2022-10-22T22:27:39.000Z,98542
2022-10-22T22:29:46.000Z,98543
2022-10-22T22:31:12.000Z,98547
2022-10-22T22:33:18.000Z,98542
2022-10-22T22:34:45.000Z,98537
2022-10-22T22:36:51.000Z,98539
2022-10-22T22:38:18.000Z,98540
2022-10-22T22:40:24.000Z,98534
2022-10-22T22:43:15.000Z,98536
2022-10-22T22:44:41.000Z,98538
2022-10-22T22:46:47.000Z,98538
2022-10-22T22:48:14.000Z,98537
2022-10-22T22:50:20.000Z,98537
2022-10-22T22:51:47.000Z,98530
2022-10-22T22:53:53.000Z,98528
2022-10-22T22:55:19.000Z,98526
2022-10-22T22:57:25.000Z,98528
2022-10-22T22:58:52.000Z,98534
2022-10-22T23:00:58.000Z,98529
2022-10-22T23:02:25.000Z,98518
2022-10-22T23:04:31.000Z,98518
2022-10-22T23:05:57.000Z,98522
2022-10-22T23:08:03.000Z,98523
2022-10-22T23:09:30.000Z,98524
2022-10-22T23:11:36.000Z,98523
2022-10-22T23:13:02.000Z,98526
2022-10-22T23:15:09.000Z,98518
2022-10-22T23:16:35.000Z,98515
2022-10-22T23:18:41.000Z,98518
2022-10-22T23:21:33.000Z,98523
2022-10-22T23:22:59.000Z,98523
2022-10-22T23:25:05.000Z,98521
2022-10-22T23:26:32.000Z,98526
2022-10-22T23:28:38.000Z,98521
2022-10-22T23:30:04.000Z,98523
2022-10-22T23:32:10.000Z,98519
2022-10-22T23:33:37.000Z,98513
2022-10-22T23:35:43.000Z,98513